Time,TemperatureF,DewpointF,PressureIn,WindDirection,WindDirectionDegrees,WindSpeedMPH,WindSpeedGustMPH,Humidity,HourlyPrecipIn,Conditions,Clouds,dailyrainin,SoftwareType,DateUTC
2013-03-26 00:00:00,54.7,39.3,29.85,NW,315,5.3,-999.0,56,-99.99,,,0.00,Acu-Link.com,2013-03-26 04:00:00,
2013-03-26 00:15:00,54.1,39.7,29.85,WNW,292,2.7,-999.0,58,-99.99,,,0.00,Acu-Link.com,2013-03-26 04:15:00,
2013-03-26 00:31:00,53.8,39.8,29.86,West,270,2.7,-999.0,59,-99.99,,,0.00,Acu-Link.com,2013-03-26 04:31:00,
2013-03-26 01:17:00,52.3,40.1,29.87,NNE,22,3.7,-999.0,63,-99.99,,,0.00,Acu-Link.com,2013-03-26 05:17:00,
2013-03-26 01:32:00,52.3,40.5,29.87,West,270,2.7,-999.0,64,-99.99,,,0.00,Acu-Link.com,2013-03-26 05:32:00,
2013-03-26 01:47:00,52.9,40.7,29.87,WNW,292,3.2,-999.0,63,-99.99,,,0.00,Acu-Link.com,2013-03-26 05:47:00,
2013-03-26 02:02:00,52.9,40.7,29.86,NW,315,3.7,-999.0,63,-99.99,,,0.00,Acu-Link.com,2013-03-26 06:02:00,
2013-03-26 02:17:00,52.9,40.7,29.87,West,270,3.2,-999.0,63,-99.99,,,0.00,Acu-Link.com,2013-03-26 06:17:00,
2013-03-26 02:32:00,52.9,40.2,29.86,WSW,247,2.7,-999.0,62,-99.99,,,0.00,Acu-Link.com,2013-03-26 06:32:00,
2013-03-26 02:48:00,52.9,40.7,29.87,West,270,0.0,-999.0,63,-99.99,,,0.00,Acu-Link.com,2013-03-26 06:48:00,
2013-03-26 03:03:00,52.7,40.5,29.86,West,270,1.7,-999.0,63,-99.99,,,0.00,Acu-Link.com,2013-03-26 07:03:00,
2013-03-26 03:18:00,52.5,40.3,29.86,East,90,2.7,-999.0,63,-99.99,,,0.00,Acu-Link.com,2013-03-26 07:18:00,
2013-03-26 03:34:00,52.5,40.3,29.85,SSW,202,3.2,-999.0,63,-99.99,,,0.00,Acu-Link.com,2013-03-26 07:34:00,
2013-03-26 03:49:00,52.2,39.2,29.86,WNW,292,3.7,-999.0,61,-99.99,,,0.00,Acu-Link.com,2013-03-26 07:49:00,
2013-03-26 04:05:00,52.3,38.8,29.86,WNW,292,0.0,-999.0,60,-99.99,,,0.00,Acu-Link.com,2013-03-26 08:05:00,
2013-03-26 04:20:00,52.3,37.5,29.86,WNW,292,2.7,-999.0,57,-99.99,,,0.00,Acu-Link.com,2013-03-26 08:20:00,
2013-03-26 04:35:00,52.3,36.2,29.86,West,270,2.2,-999.0,54,-99.99,,,0.00,Acu-Link.com,2013-03-26 08:35:00,
2013-03-26 04:50:00,52.2,35.1,29.87,NNW,337,1.1,-999.0,52,-99.99,,,0.00,Acu-Link.com,2013-03-26 08:50:00,
2013-03-26 05:05:00,52.9,35.8,29.87,SSW,202,0.0,-999.0,52,-99.99,,,0.00,Acu-Link.com,2013-03-26 09:05:00,
2013-03-26 05:20:00,53.1,35.5,29.87,NNW,337,3.7,-999.0,51,-99.99,,,0.00,Acu-Link.com,2013-03-26 09:20:00,
2013-03-26 05:35:00,53.1,35.9,29.89,West,270,0.0,-999.0,52,-99.99,,,0.00,Acu-Link.com,2013-03-26 09:35:00,
2013-03-26 06:37:00,52.0,29.0,29.91,NW,315,2.2,-999.0,41,-99.99,,,0.00,Acu-Link.com,2013-03-26 10:37:00,
2013-03-26 06:52:00,51.6,24.9,29.92,WSW,247,1.7,-999.0,35,-99.99,,,0.00,Acu-Link.com,2013-03-26 10:52:00,
2013-03-26 07:07:00,51.3,25.3,29.92,WSW,247,6.3,-999.0,36,-99.99,,,0.00,Acu-Link.com,2013-03-26 11:07:00,
2013-03-26 07:22:00,50.9,25.6,29.93,WNW,292,4.2,-999.0,37,-99.99,,,0.00,Acu-Link.com,2013-03-26 11:22:00,
2013-03-26 07:38:00,50.4,27.0,29.94,WNW,292,1.7,-999.0,40,-99.99,,,0.00,Acu-Link.com,2013-03-26 11:38:00,
2013-03-26 07:53:00,50.0,27.8,29.94,South,180,2.2,-999.0,42,-99.99,,,0.00,Acu-Link.com,2013-03-26 11:53:00,
2013-03-26 08:08:00,49.5,27.9,29.96,West,270,2.7,-999.0,43,-99.99,,,0.00,Acu-Link.com,2013-03-26 12:08:00,
2013-03-26 08:24:00,49.8,28.8,29.96,NW,315,2.2,-999.0,44,-99.99,,,0.00,Acu-Link.com,2013-03-26 12:24:00,
2013-03-26 08:39:00,50.0,29.5,29.98,SW,225,1.1,-999.0,45,-99.99,,,0.00,Acu-Link.com,2013-03-26 12:39:00,
2013-03-26 08:54:00,50.2,29.7,29.98,South,180,4.2,-999.0,45,-99.99,,,0.00,Acu-Link.com,2013-03-26 12:54:00,
2013-03-26 09:09:00,50.9,30.9,29.99,West,270,2.2,-999.0,46,-99.99,,,0.00,Acu-Link.com,2013-03-26 13:09:00,
2013-03-26 09:25:00,50.5,30.5,30.00,WSW,247,2.7,-999.0,46,-99.99,,,0.00,Acu-Link.com,2013-03-26 13:25:00,
2013-03-26 09:40:00,51.8,31.1,30.00,NW,315,0.0,-999.0,45,-99.99,,,0.00,Acu-Link.com,2013-03-26 13:40:00,
2013-03-26 09:55:00,52.7,32.0,30.00,West,270,2.2,-999.0,45,-99.99,,,0.00,Acu-Link.com,2013-03-26 13:55:00,
2013-03-26 10:11:00,52.2,29.2,30.01,WNW,292,3.7,-999.0,41,-99.99,,,0.00,Acu-Link.com,2013-03-26 14:11:00,
2013-03-26 10:26:00,54.1,30.9,30.01,NW,315,2.7,-999.0,41,-99.99,,,0.00,Acu-Link.com,2013-03-26 14:26:00,
2013-03-26 10:41:00,54.0,30.8,30.01,SW,225,3.7,-999.0,41,-99.99,,,0.00,Acu-Link.com,2013-03-26 14:41:00,
2013-03-26 10:56:00,55.0,32.3,30.01,WNW,292,2.2,-999.0,42,-99.99,,,0.00,Acu-Link.com,2013-03-26 14:56:00,
2013-03-26 11:12:00,55.8,30.6,30.01,SSW,202,2.7,-999.0,38,-99.99,,,0.00,Acu-Link.com,2013-03-26 15:12:00,
2013-03-26 11:27:00,57.6,31.5,30.01,West,270,5.8,-999.0,37,-99.99,,,0.00,Acu-Link.com,2013-03-26 15:27:00,
2013-03-26 11:42:00,59.0,30.7,30.00,WNW,292,3.2,-999.0,34,-99.99,,,0.00,Acu-Link.com,2013-03-26 15:42:00,
2013-03-26 11:57:00,58.5,30.9,30.01,SSE,157,4.7,-999.0,35,-99.99,,,0.00,Acu-Link.com,2013-03-26 15:57:00,
2013-03-26 12:12:00,59.0,29.9,30.00,WNW,292,6.3,-999.0,33,-99.99,,,0.00,Acu-Link.com,2013-03-26 16:12:00,
2013-03-26 12:27:00,59.7,29.8,30.00,South,180,5.8,-999.0,32,-99.99,,,0.00,Acu-Link.com,2013-03-26 16:27:00,
2013-03-26 12:42:00,61.2,31.9,29.99,West,270,6.8,-999.0,33,-99.99,,,0.00,Acu-Link.com,2013-03-26 16:42:00,
2013-03-26 12:57:00,60.6,29.8,30.00,NNW,337,4.2,-999.0,31,-99.99,,,0.00,Acu-Link.com,2013-03-26 16:57:00,
2013-03-26 13:12:00,62.4,29.7,29.99,WNW,292,5.3,-999.0,29,-99.99,,,0.00,Acu-Link.com,2013-03-26 17:12:00,
2013-03-26 13:27:00,63.0,29.4,29.98,West,270,8.3,-999.0,28,-99.99,,,0.00,Acu-Link.com,2013-03-26 17:27:00,
2013-03-26 13:42:00,63.5,28.0,29.98,NW,315,7.3,-999.0,26,-99.99,,,0.00,Acu-Link.com,2013-03-26 17:42:00,
2013-03-26 13:58:00,63.3,27.8,29.98,NW,315,5.3,-999.0,26,-99.99,,,0.00,Acu-Link.com,2013-03-26 17:58:00,
2013-03-26 14:13:00,64.4,29.7,29.98,WSW,247,2.7,-999.0,27,-99.99,,,0.00,Acu-Link.com,2013-03-26 18:13:00,
2013-03-26 14:28:00,63.1,25.7,29.97,NW,315,4.7,-999.0,24,-99.99,,,0.00,Acu-Link.com,2013-03-26 18:28:00,
2013-03-26 14:43:00,64.4,26.8,29.96,WSW,247,10.4,-999.0,24,-99.99,,,0.00,Acu-Link.com,2013-03-26 18:43:00,
2013-03-26 14:58:00,63.9,26.4,29.96,WSW,247,5.3,-999.0,24,-99.99,,,0.00,Acu-Link.com,2013-03-26 18:58:00,
2013-03-26 15:13:00,64.4,26.8,29.96,NNE,22,10.4,-999.0,24,-99.99,,,0.00,Acu-Link.com,2013-03-26 19:13:00,
2013-03-26 15:29:00,64.8,26.1,29.95,WNW,292,6.8,-999.0,23,-99.99,,,0.00,Acu-Link.com,2013-03-26 19:29:00,
2013-03-26 15:44:00,67.1,29.1,29.95,WSW,247,8.3,-999.0,24,-99.99,,,0.00,Acu-Link.com,2013-03-26 19:44:00,
2013-03-26 15:59:00,64.6,27.0,29.94,NNW,337,5.3,-999.0,24,-99.99,,,0.00,Acu-Link.com,2013-03-26 19:59:00,
2013-03-26 16:15:00,65.1,25.3,29.95,WSW,247,8.3,-999.0,22,-99.99,,,0.00,Acu-Link.com,2013-03-26 20:15:00,
2013-03-26 16:30:00,63.9,24.3,29.95,WNW,292,3.7,-999.0,22,-99.99,,,0.00,Acu-Link.com,2013-03-26 20:30:00,
2013-03-26 16:45:00,63.9,25.4,29.94,West,270,7.3,-999.0,23,-99.99,,,0.00,Acu-Link.com,2013-03-26 20:45:00,
2013-03-26 17:00:00,62.8,24.5,29.95,WSW,247,6.8,-999.0,23,-99.99,,,0.00,Acu-Link.com,2013-03-26 21:00:00,
2013-03-26 17:16:00,63.3,26.9,29.94,SSW,202,4.7,-999.0,25,-99.99,,,0.00,Acu-Link.com,2013-03-26 21:16:00,
2013-03-26 17:31:00,62.6,26.3,29.95,West,270,6.8,-999.0,25,-99.99,,,0.00,Acu-Link.com,2013-03-26 21:31:00,
2013-03-26 18:01:00,61.7,26.5,29.96,NNW,337,8.3,-999.0,26,-99.99,,,0.00,Acu-Link.com,2013-03-26 22:01:00,
2013-03-26 18:16:00,62.6,27.2,29.96,West,270,5.8,-999.0,26,-99.99,,,0.00,Acu-Link.com,2013-03-26 22:16:00,
2013-03-26 18:47:00,61.0,26.8,29.97,NW,315,3.7,-999.0,27,-99.99,,,0.00,Acu-Link.com,2013-03-26 22:47:00,
2013-03-26 19:02:00,58.5,24.6,29.98,West,270,5.8,-999.0,27,-99.99,,,0.00,Acu-Link.com,2013-03-26 23:02:00,
2013-03-26 19:17:00,56.8,24.1,29.98,West,270,3.2,-999.0,28,-99.99,,,0.00,Acu-Link.com,2013-03-26 23:17:00,
2013-03-26 19:32:00,55.6,24.7,29.99,WNW,292,2.7,-999.0,30,-99.99,,,0.00,Acu-Link.com,2013-03-26 23:32:00,
2013-03-26 19:48:00,54.5,26.0,30.00,WSW,247,2.2,-999.0,33,-99.99,,,0.00,Acu-Link.com,2013-03-26 23:48:00,
2013-03-26 20:03:00,53.4,26.4,30.01,WNW,292,0.0,-999.0,35,-99.99,,,0.00,Acu-Link.com,2013-03-27 00:03:00,
2013-03-26 20:18:00,52.3,26.2,30.02,ENE,67,2.7,-999.0,36,-99.99,,,0.00,Acu-Link.com,2013-03-27 00:18:00,
2013-03-26 20:33:00,52.3,26.8,30.03,WNW,292,3.2,-999.0,37,-99.99,,,0.00,Acu-Link.com,2013-03-27 00:33:00,
2013-03-26 20:49:00,51.4,26.7,30.04,West,270,2.7,-999.0,38,-99.99,,,0.00,Acu-Link.com,2013-03-27 00:49:00,
2013-03-26 21:04:00,50.7,27.9,30.04,NNE,22,2.7,-999.0,41,-99.99,,,0.00,Acu-Link.com,2013-03-27 01:04:00,
2013-03-26 21:19:00,50.2,27.4,30.05,West,270,2.7,-999.0,41,-99.99,,,0.00,Acu-Link.com,2013-03-27 01:19:00,
2013-03-26 21:34:00,49.3,28.3,30.05,WNW,292,2.2,-999.0,44,-99.99,,,0.00,Acu-Link.com,2013-03-27 01:34:00,
2013-03-26 21:50:00,48.9,29.0,30.06,West,270,2.2,-999.0,46,-99.99,,,0.00,Acu-Link.com,2013-03-27 01:50:00,
2013-03-26 22:05:00,48.4,29.6,30.07,WNW,292,1.7,-999.0,48,-99.99,,,0.00,Acu-Link.com,2013-03-27 02:05:00,
2013-03-26 22:20:00,47.8,30.6,30.07,SSW,202,2.2,-999.0,51,-99.99,,,0.00,Acu-Link.com,2013-03-27 02:20:00,
2013-03-26 22:35:00,47.1,30.9,30.08,WNW,292,1.7,-999.0,53,-99.99,,,0.00,Acu-Link.com,2013-03-27 02:35:00,
2013-03-26 22:51:00,46.4,31.6,30.09,West,270,2.7,-999.0,56,-99.99,,,0.00,Acu-Link.com,2013-03-27 02:51:00,
2013-03-26 23:21:00,46.0,32.5,30.08,West,270,2.2,-999.0,59,-99.99,,,0.00,Acu-Link.com,2013-03-27 03:21:00,
2013-03-26 23:52:00,45.5,33.6,30.09,NW,315,4.2,-999.0,63,-99.99,,,0.00,Acu-Link.com,2013-03-27 03:52:00,